createdAt,value
2023-04-20T00:00:13.524Z,6.03
2023-04-20T00:01:13.491Z,6.02
2023-04-20T00:02:13.594Z,6.02
2023-04-20T00:03:13.616Z,6.01
2023-04-20T00:04:13.527Z,6.01
2023-04-20T00:05:13.542Z,6.02
2023-04-20T00:06:13.425Z,6.02
2023-04-20T00:07:13.420Z,6.02
2023-04-20T00:08:13.436Z,6.02
2023-04-20T00:09:13.436Z,6.02
2023-04-20T00:10:13.401Z,6.01
2023-04-20T00:11:13.365Z,6.01
2023-04-20T00:12:13.333Z,6.01
2023-04-20T00:13:13.389Z,6.01
2023-04-20T00:14:13.332Z,6.01
2023-04-20T00:15:13.333Z,6.01
2023-04-20T00:16:13.335Z,6.01
2023-04-20T00:17:13.301Z,6.00
2023-04-20T00:18:13.271Z,6.00
2023-04-20T00:19:13.269Z,5.99
2023-04-20T00:20:13.238Z,5.98
2023-04-20T00:21:13.251Z,5.97
2023-04-20T00:22:13.245Z,5.97
2023-04-20T00:23:13.258Z,5.96
2023-04-20T00:24:13.196Z,5.95
2023-04-20T00:25:13.213Z,5.95
2023-04-20T00:26:13.169Z,5.95
2023-04-20T00:27:13.161Z,5.95
2023-04-20T00:28:13.145Z,5.95
2023-04-20T00:29:13.172Z,5.96
2023-04-20T00:30:13.115Z,5.97
2023-04-20T00:31:13.168Z,6.00
2023-04-20T00:32:13.130Z,6.02
2023-04-20T00:33:13.090Z,6.05
2023-04-20T00:34:13.086Z,6.08
2023-04-20T00:35:13.044Z,6.10
2023-04-20T00:36:13.072Z,6.12
2023-04-20T00:37:13.024Z,6.13
2023-04-20T00:38:13.010Z,6.15
2023-04-20T00:39:12.999Z,6.16
2023-04-20T00:40:12.998Z,6.16
2023-04-20T00:41:12.973Z,6.16
2023-04-20T00:42:12.974Z,6.17
2023-04-20T00:43:12.946Z,6.17
2023-04-20T00:44:12.931Z,6.16
2023-04-20T00:45:12.914Z,6.16
2023-04-20T00:46:12.961Z,6.15
2023-04-20T00:47:12.896Z,6.14
2023-04-20T00:48:12.885Z,6.12
2023-04-20T00:49:12.873Z,6.09
2023-04-20T00:50:12.850Z,6.06
2023-04-20T00:51:12.836Z,6.03
2023-04-20T00:52:12.855Z,6.01
2023-04-20T00:53:12.811Z,6.00
2023-04-20T00:54:12.789Z,6.00
2023-04-20T00:55:12.788Z,6.01
2023-04-20T00:56:12.765Z,6.00
2023-04-20T00:57:12.801Z,6.00
2023-04-20T00:58:12.776Z,5.99
2023-04-20T00:59:12.738Z,5.99
2023-04-20T01:00:12.725Z,6.00
2023-04-20T01:01:12.733Z,6.01
2023-04-20T01:02:12.728Z,6.02
2023-04-20T01:03:12.866Z,6.04
2023-04-20T01:04:12.724Z,6.07
2023-04-20T01:05:12.653Z,6.09
2023-04-20T01:06:12.654Z,6.12
2023-04-20T01:07:12.652Z,6.14
2023-04-20T01:08:12.628Z,6.16
2023-04-20T01:09:12.602Z,6.17
2023-04-20T01:10:12.590Z,6.18
2023-04-20T01:11:12.575Z,6.19
2023-04-20T01:12:12.554Z,6.20
2023-04-20T01:13:12.612Z,6.20
2023-04-20T01:14:12.531Z,6.20
2023-04-20T01:15:12.530Z,6.21
2023-04-20T01:16:12.626Z,6.22
2023-04-20T01:17:12.526Z,6.22
2023-04-20T01:18:12.530Z,6.23
2023-04-20T01:19:12.467Z,6.23
2023-04-20T01:20:12.551Z,6.22
2023-04-20T01:21:12.472Z,6.22
2023-04-20T01:22:12.474Z,6.23
2023-04-20T01:23:12.486Z,6.24
2023-04-20T01:24:12.428Z,6.24
2023-04-20T01:25:12.426Z,6.25
2023-04-20T01:26:12.397Z,6.25
2023-04-20T01:27:12.408Z,6.24
2023-04-20T01:28:12.368Z,6.23
2023-04-20T01:29:12.430Z,6.22
2023-04-20T01:30:12.326Z,6.20
2023-04-20T01:31:12.360Z,6.18
2023-04-20T01:32:12.295Z,6.16
2023-04-20T01:33:12.309Z,6.15
2023-04-20T01:34:12.274Z,6.13
2023-04-20T01:35:12.281Z,6.11
2023-04-20T01:36:12.247Z,6.11
2023-04-20T01:37:12.259Z,6.10
2023-04-20T01:38:12.214Z,6.09
2023-04-20T01:39:12.251Z,6.08
2023-04-20T01:40:12.208Z,6.07
2023-04-20T01:41:12.183Z,6.08
2023-04-20T01:42:12.170Z,6.08
2023-04-20T01:43:12.188Z,6.09
2023-04-20T01:44:12.168Z,6.10
2023-04-20T01:45:12.194Z,6.10
2023-04-20T01:46:12.155Z,6.11
2023-04-20T01:47:12.113Z,6.11
2023-04-20T01:48:12.087Z,6.10
2023-04-20T01:49:12.106Z,6.08
2023-04-20T01:50:12.073Z,6.07
2023-04-20T01:51:12.074Z,6.07
2023-04-20T01:52:12.046Z,6.06
2023-04-20T01:53:12.022Z,6.06
2023-04-20T01:54:12.012Z,6.05
2023-04-20T01:55:12.007Z,6.04
2023-04-20T01:56:11.983Z,6.03
2023-04-20T01:57:11.987Z,6.03
2023-04-20T01:58:11.976Z,6.02
2023-04-20T01:59:11.972Z,5.99
2023-04-20T02:00:11.938Z,5.97
2023-04-20T02:01:11.978Z,5.95
2023-04-20T02:02:11.968Z,5.94
2023-04-20T02:03:12.073Z,5.93
2023-04-20T02:04:11.917Z,5.93
2023-04-20T02:05:11.885Z,5.94
2023-04-20T02:06:11.846Z,5.96
2023-04-20T02:07:11.859Z,5.98
2023-04-20T02:08:11.833Z,5.99
2023-04-20T02:09:11.814Z,6.00
2023-04-20T02:10:11.820Z,6.02
2023-04-20T02:11:11.788Z,6.03
2023-04-20T02:12:11.781Z,6.05
2023-04-20T02:13:11.789Z,6.06
2023-04-20T02:14:11.750Z,6.09
2023-04-20T02:15:11.727Z,6.11
2023-04-20T02:16:11.766Z,6.12
2023-04-20T02:17:11.763Z,6.13
2023-04-20T02:18:11.744Z,6.14
2023-04-20T02:19:11.694Z,6.14
2023-04-20T02:20:11.700Z,6.15
2023-04-20T02:21:11.639Z,6.15
2023-04-20T02:22:11.646Z,6.15
2023-04-20T02:23:11.623Z,6.15
2023-04-20T02:24:11.604Z,6.14
2023-04-20T02:25:11.610Z,6.13
2023-04-20T02:26:11.579Z,6.10
2023-04-20T02:27:11.597Z,6.07
2023-04-20T02:28:11.592Z,6.04
2023-04-20T02:29:11.541Z,6.02
2023-04-20T02:30:11.524Z,6.00
2023-04-20T02:31:11.559Z,5.98
2023-04-20T02:32:11.525Z,5.96
2023-04-20T02:33:11.494Z,5.94
2023-04-20T02:34:11.475Z,5.93
2023-04-20T02:35:11.480Z,5.91
2023-04-20T02:36:11.464Z,5.90
2023-04-20T02:37:11.444Z,5.88
2023-04-20T02:38:11.432Z,5.88
2023-04-20T02:39:11.413Z,5.88
2023-04-20T02:40:11.393Z,5.87
2023-04-20T02:41:11.390Z,5.87
2023-04-20T02:42:11.392Z,5.87
2023-04-20T02:43:11.355Z,5.87
2023-04-20T02:44:11.356Z,5.87
2023-04-20T02:45:11.351Z,5.88
2023-04-20T02:46:11.341Z,5.89
2023-04-20T02:47:11.307Z,5.91
2023-04-20T02:48:11.291Z,5.92
2023-04-20T02:49:11.275Z,5.92
2023-04-20T02:50:11.272Z,5.93
2023-04-20T02:51:11.266Z,5.94
2023-04-20T02:52:11.241Z,5.94
2023-04-20T02:53:11.232Z,5.93
2023-04-20T02:54:11.212Z,5.93
2023-04-20T02:55:11.211Z,5.93
2023-04-20T02:56:11.246Z,5.93
2023-04-20T02:57:11.179Z,5.92
2023-04-20T02:58:11.171Z,5.91
2023-04-20T02:59:11.165Z,5.91
2023-04-20T03:00:11.150Z,5.91
2023-04-20T03:01:11.118Z,5.91
2023-04-20T03:02:11.294Z,5.91
2023-04-20T03:03:11.247Z,5.90
2023-04-20T03:04:11.142Z,5.89
2023-04-20T03:05:11.092Z,5.90
2023-04-20T03:06:11.080Z,5.90
2023-04-20T03:07:11.068Z,5.90
2023-04-20T03:08:11.042Z,5.89
2023-04-20T03:09:11.020Z,5.89
2023-04-20T03:10:11.019Z,5.89
2023-04-20T03:11:11.016Z,5.89
2023-04-20T03:12:11.000Z,5.89
2023-04-20T03:13:10.973Z,5.90
2023-04-20T03:14:10.969Z,5.92
2023-04-20T03:15:10.943Z,5.92
2023-04-20T03:16:10.952Z,5.91
2023-04-20T03:17:10.931Z,5.89
2023-04-20T03:18:10.898Z,5.88
2023-04-20T03:19:10.912Z,5.88
2023-04-20T03:20:10.877Z,5.88
2023-04-20T03:21:10.861Z,5.89
2023-04-20T03:22:10.862Z,5.90
2023-04-20T03:23:10.838Z,5.91
2023-04-20T03:24:10.842Z,5.94
2023-04-20T03:25:10.813Z,5.96
2023-04-20T03:26:10.792Z,5.96
2023-04-20T03:27:10.792Z,5.97
2023-04-20T03:28:10.804Z,5.98
2023-04-20T03:29:10.754Z,5.98
2023-04-20T03:30:10.745Z,5.98
2023-04-20T03:31:10.738Z,5.97
2023-04-20T03:32:10.739Z,5.95
2023-04-20T03:33:10.749Z,5.93
2023-04-20T03:34:10.719Z,5.89
2023-04-20T03:35:10.700Z,5.87
2023-04-20T03:36:10.663Z,5.85
2023-04-20T03:37:10.660Z,5.84
2023-04-20T03:38:10.645Z,5.85
2023-04-20T03:39:10.640Z,5.85
2023-04-20T03:40:10.618Z,5.83
2023-04-20T03:41:10.631Z,5.82
2023-04-20T03:42:10.585Z,5.80
2023-04-20T03:43:10.584Z,5.79
2023-04-20T03:44:17.094Z,5.79
2023-04-20T03:45:10.543Z,5.78
2023-04-20T03:46:10.597Z,5.78
2023-04-20T03:47:10.516Z,5.77
2023-04-20T03:48:10.511Z,5.77
2023-04-20T03:49:10.495Z,5.76
2023-04-20T03:50:10.608Z,5.75
2023-04-20T03:51:10.459Z,5.75
2023-04-20T03:52:10.458Z,5.75
2023-04-20T03:53:10.485Z,5.75
2023-04-20T03:54:10.417Z,5.75
2023-04-20T03:55:10.412Z,5.76
2023-04-20T03:56:10.384Z,5.77
2023-04-20T03:57:10.376Z,5.78
2023-04-20T03:58:10.364Z,5.79
2023-04-20T03:59:10.353Z,5.79
2023-04-20T04:00:10.338Z,5.79
2023-04-20T04:01:10.343Z,5.79
2023-04-20T04:02:10.435Z,5.80
2023-04-20T04:03:11.095Z,5.81
2023-04-20T04:04:10.579Z,5.82
2023-04-20T04:05:10.368Z,5.83
2023-04-20T04:06:10.284Z,5.83
2023-04-20T04:07:10.239Z,5.84
2023-04-20T04:08:10.238Z,5.83
2023-04-20T04:09:10.231Z,5.84
2023-04-20T04:10:10.209Z,5.86
2023-04-20T04:11:10.190Z,5.87
2023-04-20T04:12:10.173Z,5.87
2023-04-20T04:13:10.164Z,5.86
2023-04-20T04:14:10.176Z,5.85
2023-04-20T04:15:10.132Z,5.85
2023-04-20T04:16:10.134Z,5.85
2023-04-20T04:17:10.220Z,5.85
2023-04-20T04:18:10.176Z,5.85
2023-04-20T04:19:10.587Z,5.85
2023-04-20T04:20:10.068Z,5.85
2023-04-20T04:21:10.059Z,5.86
2023-04-20T04:22:10.048Z,5.87
2023-04-20T04:23:10.034Z,5.89
2023-04-20T04:24:10.031Z,5.90
2023-04-20T04:25:10.020Z,5.91
2023-04-20T04:26:09.996Z,5.92
2023-04-20T04:27:09.981Z,5.92
2023-04-20T04:28:10.875Z,5.92
2023-04-20T04:29:09.976Z,5.90
2023-04-20T04:30:09.954Z,5.89
2023-04-20T04:31:10.053Z,5.88
2023-04-20T04:32:09.926Z,5.87
2023-04-20T04:33:09.903Z,5.85
2023-04-20T04:34:09.887Z,5.83
2023-04-20T04:35:09.883Z,5.83
2023-04-20T04:36:09.864Z,5.83
2023-04-20T04:37:09.845Z,5.82
2023-04-20T04:38:09.874Z,5.82
2023-04-20T04:39:09.836Z,5.81
2023-04-20T04:40:09.824Z,5.80
2023-04-20T04:41:09.801Z,5.80
2023-04-20T04:42:09.801Z,5.80
2023-04-20T04:43:09.781Z,5.80
2023-04-20T04:44:09.763Z,5.81
2023-04-20T04:45:09.775Z,5.81
2023-04-20T04:46:09.890Z,5.82
2023-04-20T04:47:09.722Z,5.85
2023-04-20T04:48:09.769Z,5.87
2023-04-20T04:49:09.689Z,5.88
2023-04-20T04:50:09.707Z,5.87
2023-04-20T04:51:09.769Z,5.84
2023-04-20T04:52:09.683Z,5.81
2023-04-20T04:53:09.649Z,5.77
2023-04-20T04:54:09.629Z,5.74
2023-04-20T04:55:09.660Z,5.71
2023-04-20T04:56:09.610Z,5.69
2023-04-20T04:57:09.617Z,5.69
2023-04-20T04:58:09.617Z,5.69
2023-04-20T04:59:09.617Z,5.70
2023-04-20T05:00:09.604Z,5.70
2023-04-20T05:01:09.556Z,5.69
2023-04-20T05:02:09.573Z,5.67
2023-04-20T05:03:09.709Z,5.65
2023-04-20T05:04:09.678Z,5.62
2023-04-20T05:05:10.004Z,5.59
2023-04-20T05:06:09.472Z,5.57
2023-04-20T05:07:09.487Z,5.56
2023-04-20T05:08:09.497Z,5.56
2023-04-20T05:09:09.425Z,5.57
2023-04-20T05:10:09.438Z,5.57
2023-04-20T05:11:09.722Z,5.58
2023-04-20T05:12:09.423Z,5.58
2023-04-20T05:13:09.377Z,5.59
2023-04-20T05:14:09.402Z,5.59
2023-04-20T05:15:09.391Z,5.60
2023-04-20T05:16:09.681Z,5.61
2023-04-20T05:17:09.344Z,5.62
2023-04-20T05:18:09.401Z,5.64
2023-04-20T05:19:09.360Z,5.64
2023-04-20T05:20:09.281Z,5.63
2023-04-20T05:21:09.272Z,5.62
2023-04-20T05:22:09.307Z,5.61
2023-04-20T05:23:09.276Z,5.62
2023-04-20T05:24:09.246Z,5.62
2023-04-20T05:25:09.383Z,5.62
2023-04-20T05:26:09.220Z,5.61
2023-04-20T05:27:09.201Z,5.60
2023-04-20T05:28:09.222Z,5.59
2023-04-20T05:29:09.186Z,5.58
2023-04-20T05:30:19.624Z,5.57
2023-04-20T05:31:09.162Z,5.57
2023-04-20T05:32:09.519Z,5.59
2023-04-20T05:33:09.190Z,5.60
2023-04-20T05:34:09.100Z,5.61
2023-04-20T05:35:09.108Z,5.62
2023-04-20T05:36:09.122Z,5.62
2023-04-20T05:37:09.064Z,5.62
2023-04-20T05:38:09.072Z,5.61
2023-04-20T05:39:09.030Z,5.61
2023-04-20T05:40:09.024Z,5.60
2023-04-20T05:41:09.088Z,5.58
2023-04-20T05:42:09.005Z,5.56
2023-04-20T05:43:08.980Z,5.55
2023-04-20T05:44:08.986Z,5.53
2023-04-20T05:45:08.987Z,5.52
2023-04-20T05:46:08.964Z,5.50
2023-04-20T05:47:08.978Z,5.49
2023-04-20T05:48:08.948Z,5.48
2023-04-20T05:49:08.914Z,5.48
2023-04-20T05:50:08.898Z,5.48
2023-04-20T05:51:08.881Z,5.48
2023-04-20T05:52:08.887Z,5.49
2023-04-20T05:53:08.864Z,5.50
2023-04-20T05:54:08.844Z,5.52
2023-04-20T05:55:08.835Z,5.54
2023-04-20T05:56:08.825Z,5.56
2023-04-20T05:57:08.812Z,5.57
2023-04-20T05:58:08.799Z,5.58
2023-04-20T05:59:08.779Z,5.59
2023-04-20T06:00:08.784Z,5.58
2023-04-20T06:01:08.749Z,5.58
2023-04-20T06:02:08.835Z,5.58
2023-04-20T06:03:09.028Z,5.59
2023-04-20T06:04:08.996Z,5.59
2023-04-20T06:05:08.787Z,5.60
2023-04-20T06:06:08.693Z,5.60
2023-04-20T06:07:08.714Z,5.60
2023-04-20T06:08:08.726Z,5.61
2023-04-20T06:09:08.646Z,5.62
2023-04-20T06:10:08.666Z,5.62
2023-04-20T06:11:08.635Z,5.62
2023-04-20T06:12:08.621Z,5.62
2023-04-20T06:13:08.608Z,5.63
2023-04-20T06:14:08.594Z,5.63
2023-04-20T06:15:08.603Z,5.63
2023-04-20T06:16:08.666Z,5.62
2023-04-20T06:17:08.563Z,5.61
2023-04-20T06:18:08.593Z,5.60
2023-04-20T06:19:08.561Z,5.59
2023-04-20T06:20:08.540Z,5.59
2023-04-20T06:21:08.489Z,5.58
2023-04-20T06:22:08.491Z,5.56
2023-04-20T06:23:08.498Z,5.55
2023-04-20T06:24:08.464Z,5.54
2023-04-20T06:25:08.452Z,5.53
2023-04-20T06:26:08.440Z,5.52
2023-04-20T06:27:08.424Z,5.51
2023-04-20T06:28:08.420Z,5.52
2023-04-20T06:29:08.382Z,5.53
2023-04-20T06:30:08.374Z,5.54
2023-04-20T06:31:08.417Z,5.56
2023-04-20T06:32:08.381Z,5.57
2023-04-20T06:33:10.252Z,5.58
2023-04-20T06:34:08.336Z,5.59
2023-04-20T06:35:08.338Z,5.59
2023-04-20T06:36:08.299Z,5.58
2023-04-20T06:37:08.278Z,5.58
2023-04-20T06:38:08.277Z,5.57
2023-04-20T06:39:08.254Z,5.56
2023-04-20T06:40:08.723Z,5.54
2023-04-20T06:41:08.292Z,5.52
2023-04-20T06:42:08.209Z,5.49
2023-04-20T06:43:08.196Z,5.46
2023-04-20T06:44:08.214Z,5.42
2023-04-20T06:45:08.195Z,5.39
2023-04-20T06:46:08.174Z,5.37
2023-04-20T06:47:08.229Z,5.36
2023-04-20T06:48:17.146Z,5.35
2023-04-20T06:49:08.133Z,5.34
2023-04-20T06:50:08.113Z,5.34
2023-04-20T06:51:08.100Z,5.34
2023-04-20T06:52:08.090Z,5.36
2023-04-20T06:53:08.092Z,5.36
2023-04-20T06:54:08.060Z,5.36
2023-04-20T06:55:08.044Z,5.35
2023-04-20T06:56:08.043Z,5.35
2023-04-20T06:57:08.028Z,5.35
2023-04-20T06:58:07.994Z,5.34
2023-04-20T06:59:08.043Z,5.32
2023-04-20T07:00:07.980Z,5.32
2023-04-20T07:01:08.018Z,5.33
2023-04-20T07:02:08.162Z,5.35
2023-04-20T07:03:08.027Z,5.37
2023-04-20T07:04:08.042Z,5.40
2023-04-20T07:05:07.926Z,5.42
2023-04-20T07:06:07.886Z,5.44
2023-04-20T07:07:07.881Z,5.46
2023-04-20T07:08:07.869Z,5.47
2023-04-20T07:09:07.885Z,5.48
2023-04-20T07:10:07.860Z,5.48
2023-04-20T07:11:07.827Z,5.48
2023-04-20T07:12:07.824Z,5.47
2023-04-20T07:13:07.800Z,5.47
2023-04-20T07:14:07.791Z,5.47
2023-04-20T07:15:07.776Z,5.47
2023-04-20T07:16:07.835Z,5.47
2023-04-20T07:17:07.757Z,5.48
2023-04-20T07:18:07.837Z,5.48
2023-04-20T07:19:07.798Z,5.49
2023-04-20T07:20:07.718Z,5.50
2023-04-20T07:21:07.691Z,5.51
2023-04-20T07:22:07.748Z,5.52
2023-04-20T07:23:07.666Z,5.53
2023-04-20T07:24:07.665Z,5.54
2023-04-20T07:25:07.648Z,5.55
2023-04-20T07:26:07.628Z,5.56
2023-04-20T07:27:07.636Z,5.57
2023-04-20T07:28:07.632Z,5.58
2023-04-20T07:29:07.600Z,5.58
2023-04-20T07:30:07.574Z,5.58
2023-04-20T07:31:07.588Z,5.57
2023-04-20T07:32:07.604Z,5.57
2023-04-20T07:33:07.595Z,5.57
2023-04-20T07:34:07.539Z,5.58
2023-04-20T07:35:07.509Z,5.59
2023-04-20T07:36:07.515Z,5.58
2023-04-20T07:37:07.475Z,5.58
2023-04-20T07:38:07.491Z,5.59
2023-04-20T07:39:07.449Z,5.58
2023-04-20T07:40:07.498Z,5.56
2023-04-20T07:41:07.455Z,5.55
2023-04-20T07:42:07.418Z,5.55
2023-04-20T07:43:07.437Z,5.55
2023-04-20T07:44:07.389Z,5.56
2023-04-20T07:45:07.393Z,5.56
2023-04-20T07:46:07.466Z,5.57
2023-04-20T07:47:07.354Z,5.58
2023-04-20T07:48:07.463Z,5.59
2023-04-20T07:49:07.350Z,5.60
2023-04-20T07:50:07.319Z,5.60
2023-04-20T07:51:07.306Z,5.59
2023-04-20T07:52:16.311Z,5.56
2023-04-20T07:53:07.308Z,5.54
2023-04-20T07:54:07.249Z,5.52
2023-04-20T07:55:07.248Z,5.51
2023-04-20T07:56:07.246Z,5.51
2023-04-20T07:57:07.252Z,5.52
2023-04-20T07:58:07.244Z,5.53
2023-04-20T07:59:07.210Z,5.54
2023-04-20T08:00:07.198Z,5.55
2023-04-20T08:01:07.192Z,5.57
2023-04-20T08:02:07.224Z,5.58
2023-04-20T08:03:07.480Z,5.59
2023-04-20T08:04:07.450Z,5.60
2023-04-20T08:05:07.409Z,5.61
2023-04-20T08:06:07.272Z,5.63
2023-04-20T08:07:07.086Z,5.64
2023-04-20T08:08:07.079Z,5.65
2023-04-20T08:09:07.069Z,5.64
2023-04-20T08:10:07.093Z,5.64
2023-04-20T08:11:07.036Z,5.64
2023-04-20T08:12:07.026Z,5.64
2023-04-20T08:13:08.098Z,5.62
2023-04-20T08:14:07.054Z,5.60
2023-04-20T08:15:06.999Z,5.56
2023-04-20T08:16:07.589Z,5.52
2023-04-20T08:17:06.994Z,5.49
2023-04-20T08:18:06.996Z,5.48
2023-04-20T08:19:06.957Z,5.48
2023-04-20T08:20:06.913Z,5.49
2023-04-20T08:21:07.327Z,5.50
2023-04-20T08:22:06.889Z,5.51
2023-04-20T08:23:06.890Z,5.52
2023-04-20T08:24:06.865Z,5.53
2023-04-20T08:25:06.870Z,5.55
2023-04-20T08:26:06.845Z,5.57
2023-04-20T08:27:06.848Z,5.58
2023-04-20T08:28:11.778Z,5.59
2023-04-20T08:29:06.845Z,5.60
2023-04-20T08:30:06.789Z,5.59
2023-04-20T08:31:06.816Z,5.56
2023-04-20T08:32:06.873Z,5.52
2023-04-20T08:33:06.830Z,5.48
2023-04-20T08:34:06.742Z,5.44
2023-04-20T08:35:06.742Z,5.41
2023-04-20T08:36:06.727Z,5.38
2023-04-20T08:37:06.701Z,5.37
2023-04-20T08:38:06.679Z,5.36
2023-04-20T08:39:06.698Z,5.36
2023-04-20T08:40:06.674Z,5.36
2023-04-20T08:41:06.700Z,5.37
2023-04-20T08:42:06.655Z,5.38
2023-04-20T08:43:06.623Z,5.40
2023-04-20T08:44:06.614Z,5.43
2023-04-20T08:45:06.624Z,5.45
2023-04-20T08:46:06.631Z,5.48
2023-04-20T08:47:06.653Z,5.49
2023-04-20T08:48:06.645Z,5.51
2023-04-20T08:49:06.549Z,5.52
2023-04-20T08:50:06.521Z,5.52
2023-04-20T08:51:06.532Z,5.52
2023-04-20T08:52:06.548Z,5.52
2023-04-20T08:53:06.497Z,5.52
2023-04-20T08:54:06.484Z,5.51
2023-04-20T08:55:06.499Z,5.52
2023-04-20T08:56:06.467Z,5.53
2023-04-20T08:57:06.481Z,5.53
2023-04-20T08:58:06.425Z,5.55
2023-04-20T08:59:06.449Z,5.56
2023-04-20T09:00:06.487Z,5.58
2023-04-20T09:01:06.388Z,5.61
2023-04-20T09:02:06.460Z,5.64
2023-04-20T09:03:06.475Z,5.66
2023-04-20T09:04:06.423Z,5.68
2023-04-20T09:05:06.363Z,5.70
2023-04-20T09:06:06.380Z,5.72
2023-04-20T09:07:06.318Z,5.74
2023-04-20T09:08:06.344Z,5.75
2023-04-20T09:09:06.323Z,5.76
2023-04-20T09:10:06.298Z,5.77
2023-04-20T09:11:06.257Z,5.77
2023-04-20T09:12:06.245Z,5.77
2023-04-20T09:13:06.252Z,5.76
2023-04-20T09:14:06.206Z,5.74
2023-04-20T09:15:06.222Z,5.72
2023-04-20T09:16:06.182Z,5.71
2023-04-20T09:17:06.174Z,5.70
2023-04-20T09:18:06.224Z,5.70
2023-04-20T09:19:07.733Z,5.70
2023-04-20T09:20:06.143Z,5.69
2023-04-20T09:21:06.171Z,5.68
2023-04-20T09:22:06.144Z,5.67
2023-04-20T09:23:06.132Z,5.67
2023-04-20T09:24:06.083Z,5.68
2023-04-20T09:25:06.080Z,5.68
2023-04-20T09:26:06.082Z,5.67
2023-04-20T09:27:06.059Z,5.68
2023-04-20T09:28:06.048Z,5.69
2023-04-20T09:29:06.019Z,5.70
2023-04-20T09:30:06.024Z,5.73
2023-04-20T09:31:05.989Z,5.75
2023-04-20T09:32:06.023Z,5.76
2023-04-20T09:33:06.032Z,5.78
2023-04-20T09:34:05.949Z,5.79
2023-04-20T09:35:05.954Z,5.80
2023-04-20T09:36:05.926Z,5.81
2023-04-20T09:37:07.306Z,5.82
2023-04-20T09:38:05.913Z,5.83
2023-04-20T09:39:05.903Z,5.84
2023-04-20T09:40:06.023Z,5.85
2023-04-20T09:41:05.878Z,5.86
2023-04-20T09:42:05.863Z,5.89
2023-04-20T09:43:05.861Z,5.91
2023-04-20T09:44:05.844Z,5.92
2023-04-20T09:45:05.850Z,5.94
2023-04-20T09:46:05.927Z,5.95
2023-04-20T09:47:05.815Z,5.97
2023-04-20T09:48:05.872Z,5.98
2023-04-20T09:49:05.774Z,5.99
2023-04-20T09:50:19.364Z,6.00
2023-04-20T09:51:05.789Z,6.00
2023-04-20T09:52:05.727Z,5.99
2023-04-20T09:53:05.724Z,6.00
2023-04-20T09:54:05.693Z,6.00
2023-04-20T09:55:05.732Z,6.01
2023-04-20T09:56:05.674Z,6.03
2023-04-20T09:57:05.682Z,6.04
2023-04-20T09:58:05.656Z,6.05
2023-04-20T09:59:05.679Z,6.06
2023-04-20T10:00:05.699Z,6.08
2023-04-20T10:01:05.620Z,6.09
2023-04-20T10:02:05.655Z,6.10
2023-04-20T10:03:05.691Z,6.12
2023-04-20T10:04:05.816Z,6.13
2023-04-20T10:05:05.571Z,6.15
2023-04-20T10:06:05.574Z,6.17
2023-04-20T10:07:05.533Z,6.18
2023-04-20T10:08:05.516Z,6.20
2023-04-20T10:09:05.518Z,6.21
2023-04-20T10:10:05.490Z,6.23
2023-04-20T10:11:05.482Z,6.24
2023-04-20T10:12:05.484Z,6.24
2023-04-20T10:13:05.461Z,6.25
2023-04-20T10:14:05.467Z,6.24
2023-04-20T10:15:05.470Z,6.23
2023-04-20T10:16:05.453Z,6.22
2023-04-20T10:17:05.585Z,6.21
2023-04-20T10:18:05.411Z,6.20
2023-04-20T10:19:07.600Z,6.21
2023-04-20T10:20:05.379Z,6.20
2023-04-20T10:21:05.364Z,6.20
2023-04-20T10:22:05.342Z,6.20
2023-04-20T10:23:05.344Z,6.21
2023-04-20T10:24:05.314Z,6.22
2023-04-20T10:25:05.356Z,6.24
2023-04-20T10:26:05.336Z,6.25
2023-04-20T10:27:05.297Z,6.27
2023-04-20T10:28:05.264Z,6.27
2023-04-20T10:29:05.355Z,6.28
2023-04-20T10:30:05.343Z,6.28
2023-04-20T10:31:05.258Z,6.29
2023-04-20T10:32:05.225Z,6.30
2023-04-20T10:33:05.256Z,6.30
2023-04-20T10:34:05.227Z,6.30
2023-04-20T10:35:05.279Z,6.30
2023-04-20T10:36:05.156Z,6.30
2023-04-20T10:37:05.141Z,6.29
2023-04-20T10:38:05.134Z,6.29
2023-04-20T10:39:05.126Z,6.28
2023-04-20T10:40:07.742Z,6.28
2023-04-20T10:41:05.100Z,6.28
2023-04-20T10:42:05.080Z,6.28
2023-04-20T10:43:05.060Z,6.27
2023-04-20T10:44:05.051Z,6.25
2023-04-20T10:45:05.083Z,6.24
2023-04-20T10:46:05.061Z,6.24
2023-04-20T10:47:05.020Z,6.24
2023-04-20T10:48:05.046Z,6.25
2023-04-20T10:49:04.985Z,6.26
2023-04-20T10:50:04.991Z,6.26
2023-04-20T10:51:04.949Z,6.25
2023-04-20T10:52:04.962Z,6.24
2023-04-20T10:53:04.949Z,6.24
2023-04-20T10:54:04.939Z,6.23
2023-04-20T10:55:04.932Z,6.22
2023-04-20T10:56:04.902Z,6.21
2023-04-20T10:57:12.575Z,6.21
2023-04-20T10:58:04.949Z,6.21
2023-04-20T10:59:04.899Z,6.22
2023-04-20T11:00:04.858Z,6.23
2023-04-20T11:01:04.864Z,6.24
2023-04-20T11:02:04.900Z,6.24
2023-04-20T11:03:04.886Z,6.25
2023-04-20T11:04:04.807Z,6.25
2023-04-20T11:05:04.818Z,6.26
2023-04-20T11:06:04.809Z,6.26
2023-04-20T11:07:04.761Z,6.27
2023-04-20T11:08:04.744Z,6.27
2023-04-20T11:09:04.727Z,6.27
2023-04-20T11:10:04.729Z,6.27
2023-04-20T11:11:04.719Z,6.28
2023-04-20T11:12:04.695Z,6.28
2023-04-20T11:13:04.689Z,6.29
2023-04-20T11:14:04.700Z,6.30
2023-04-20T11:15:04.672Z,6.32
2023-04-20T11:16:04.733Z,6.34
2023-04-20T11:17:04.761Z,6.35
2023-04-20T11:18:04.676Z,6.36
2023-04-20T11:19:04.601Z,6.36
2023-04-20T11:20:04.590Z,6.37
2023-04-20T11:21:04.578Z,6.36
2023-04-20T11:22:04.825Z,6.35
2023-04-20T11:23:04.570Z,6.34
2023-04-20T11:24:04.542Z,6.33
2023-04-20T11:25:04.523Z,6.32
2023-04-20T11:26:04.532Z,6.32
2023-04-20T11:27:04.563Z,6.33
2023-04-20T11:28:04.488Z,6.34
2023-04-20T11:29:04.473Z,6.36
2023-04-20T11:30:04.468Z,6.37
2023-04-20T11:31:04.485Z,6.38
2023-04-20T11:32:04.541Z,6.38
2023-04-20T11:33:04.478Z,6.39
2023-04-20T11:34:05.991Z,6.40
2023-04-20T11:35:07.064Z,6.41
2023-04-20T11:36:04.395Z,6.43
2023-04-20T11:37:04.380Z,6.44
2023-04-20T11:38:04.356Z,6.46
2023-04-20T11:39:04.342Z,6.48
2023-04-20T11:40:04.357Z,6.49
2023-04-20T11:41:04.359Z,6.50
2023-04-20T11:42:04.335Z,6.51
2023-04-20T11:43:04.290Z,6.52
2023-04-20T11:44:04.307Z,6.52
2023-04-20T11:45:04.255Z,6.53
2023-04-20T11:46:04.399Z,6.55
2023-04-20T11:47:04.266Z,6.55
2023-04-20T11:48:04.295Z,6.56
2023-04-20T11:49:04.219Z,6.55
2023-04-20T11:50:04.201Z,6.55
2023-04-20T11:51:04.189Z,6.56
2023-04-20T11:52:04.224Z,6.56
2023-04-20T11:53:04.161Z,6.55
2023-04-20T11:54:04.154Z,6.54
2023-04-20T11:55:04.153Z,6.53
2023-04-20T11:56:04.121Z,6.51
2023-04-20T11:57:04.108Z,6.51
2023-04-20T11:58:04.090Z,6.51
2023-04-20T11:59:04.086Z,6.52
2023-04-20T12:00:04.072Z,6.52
2023-04-20T12:01:04.051Z,6.53
2023-04-20T12:02:04.490Z,6.54
2023-04-20T12:03:04.151Z,6.54
2023-04-20T12:04:04.300Z,6.55
2023-04-20T12:05:04.077Z,6.56
2023-04-20T12:06:03.988Z,6.58
2023-04-20T12:07:04.110Z,6.59
2023-04-20T12:08:03.974Z,6.61
2023-04-20T12:09:03.944Z,6.61
2023-04-20T12:10:03.937Z,6.62
2023-04-20T12:11:03.920Z,6.62
2023-04-20T12:12:03.927Z,6.61
2023-04-20T12:13:03.902Z,6.61
2023-04-20T12:14:03.941Z,6.61
2023-04-20T12:15:03.871Z,6.61
2023-04-20T12:16:03.989Z,6.62
2023-04-20T12:17:04.062Z,6.62
2023-04-20T12:18:03.909Z,6.61
2023-04-20T12:19:03.891Z,6.61
2023-04-20T12:20:03.836Z,6.61
2023-04-20T12:21:03.812Z,6.62
2023-04-20T12:22:03.854Z,6.63
2023-04-20T12:23:03.769Z,6.64
2023-04-20T12:24:03.756Z,6.65
2023-04-20T12:25:03.758Z,6.65
2023-04-20T12:26:03.723Z,6.65
2023-04-20T12:27:03.746Z,6.65
2023-04-20T12:28:03.724Z,6.65
2023-04-20T12:29:03.691Z,6.66
2023-04-20T12:30:03.696Z,6.67
2023-04-20T12:31:03.734Z,6.69
2023-04-20T12:32:03.661Z,6.70
2023-04-20T12:33:03.687Z,6.71
2023-04-20T12:34:03.634Z,6.72
2023-04-20T12:35:03.610Z,6.73
2023-04-20T12:36:03.593Z,6.73
2023-04-20T12:37:03.593Z,6.72
2023-04-20T12:38:03.582Z,6.70
2023-04-20T12:39:03.593Z,6.69
2023-04-20T12:40:03.574Z,6.68
2023-04-20T12:41:03.528Z,6.68
2023-04-20T12:42:03.543Z,6.69
2023-04-20T12:43:03.548Z,6.69
2023-04-20T12:44:06.572Z,6.70
2023-04-20T12:45:03.484Z,6.71
2023-04-20T12:46:03.480Z,6.71
2023-04-20T12:47:03.471Z,6.72
2023-04-20T12:48:03.490Z,6.74
2023-04-20T12:49:03.431Z,6.76
2023-04-20T12:50:03.428Z,6.77
2023-04-20T12:51:03.406Z,6.79
2023-04-20T12:52:03.946Z,6.81
2023-04-20T12:53:03.422Z,6.82
2023-04-20T12:54:03.384Z,6.84
2023-04-20T12:55:03.363Z,6.84
2023-04-20T12:56:03.334Z,6.85
2023-04-20T12:57:03.335Z,6.86
2023-04-20T12:58:03.343Z,6.87
2023-04-20T12:59:03.313Z,6.88
2023-04-20T13:00:03.306Z,6.89
2023-04-20T13:01:03.355Z,6.90
2023-04-20T13:02:03.319Z,6.91
2023-04-20T13:03:03.331Z,6.92
2023-04-20T13:04:03.476Z,6.93
2023-04-20T13:05:03.212Z,6.95
2023-04-20T13:06:03.206Z,6.96
2023-04-20T13:07:03.200Z,6.98
2023-04-20T13:08:03.177Z,6.99
2023-04-20T13:09:03.173Z,7.00
2023-04-20T13:10:03.172Z,7.00
2023-04-20T13:11:03.137Z,7.01
2023-04-20T13:12:03.130Z,7.01
2023-04-20T13:13:03.155Z,7.02
2023-04-20T13:14:03.109Z,7.04
2023-04-20T13:15:03.100Z,7.05
2023-04-20T13:16:03.112Z,7.06
2023-04-20T13:17:03.120Z,7.06
2023-04-20T13:18:03.112Z,7.06